Terminal Aerodrome Forecast
Issued by NWS

Home | Current Version | Previous Version | Text Only | Print | Product List | Glossary Off
Versions: 1 2 3 4 5 6 7 8 9 10 11 12 13 14 15 16 17 18 19 20 21

000
FTUS42 KMHX 142331
TAFOAJ
TAF
KOAJ 142331Z 1500/1524 VRB03KT P6SM BKN015
     FM150800 VRB03KT P6SM BKN015
     FM151400 36006KT P6SM BKN070
     FM152000 04006KT P6SM SCT020
      AMD LTD TO CLD VIS AND WIND=

USA.gov is the U.S. government's official web portal to all federal, state and local government web resources and services.